Terminal Aerodrome Forecast
Issued by NWS

Home | Current Version | Previous Version | Text Only | Print | Product List | Glossary On
Versions: 1 2 3 4 5 6 7 8 9 10 11 12 13 14 15 16 17 18 19 20 21 22 23
000
FTUS43 KAPX 221120
TAFMBL
TAF
KMBL 221120Z 2212/2312 07006KT P6SM OVC120
     FM230100 10004KT P6SM OVC070
     FM230400 12011KT P6SM OVC040
     FM230900 14009KT P6SM -FZRA OVC020 WS015/14040KT
     FM231100 15007KT 6SM -FZRA OVC010 WS015/14040KT=

USA.gov is the U.S. government's official web portal to all federal, state and local government web resources and services.